createdAt,value
2022-11-10T00:01:28.065Z,45.63
2022-11-10T00:04:16.896Z,45.63
2022-11-10T00:07:07.097Z,45.55
2022-11-10T00:09:55.932Z,45.57
2022-11-10T00:12:44.530Z,45.72
2022-11-10T00:15:51.030Z,45.94
2022-11-10T00:18:39.615Z,45.87
2022-11-10T00:21:28.303Z,45.78
2022-11-10T00:24:18.268Z,45.66
2022-11-10T00:27:06.904Z,45.70
2022-11-10T00:29:55.599Z,45.62
2022-11-10T00:32:44.319Z,45.82
2022-11-10T00:35:32.896Z,45.52
2022-11-10T00:38:21.458Z,45.68
2022-11-10T00:41:11.595Z,45.52
2022-11-10T00:44:00.199Z,45.52
2022-11-10T00:46:48.797Z,45.80
2022-11-10T00:49:37.410Z,45.85
2022-11-10T00:52:26.028Z,45.89
2022-11-10T00:55:14.668Z,45.46
2022-11-10T00:58:04.586Z,45.85
2022-11-10T01:00:53.305Z,45.96
2022-11-10T01:03:42.715Z,45.47
2022-11-10T01:06:31.370Z,45.87
2022-11-10T01:09:20.636Z,45.62
2022-11-10T01:12:09.357Z,45.87
2022-11-10T01:14:59.495Z,45.60
2022-11-10T01:17:48.307Z,45.74
2022-11-10T01:20:37.417Z,45.90
2022-11-10T01:23:28.007Z,45.55
2022-11-10T01:26:17.067Z,45.90
2022-11-10T01:29:05.752Z,45.74
2022-11-10T01:31:55.807Z,45.97
2022-11-10T01:34:44.444Z,45.70
2022-11-10T01:37:33.101Z,45.66
2022-11-10T01:40:22.027Z,45.91
2022-11-10T01:43:12.037Z,45.61
2022-11-10T01:46:02.411Z,45.77
2022-11-10T01:48:55.216Z,45.85
2022-11-10T01:51:47.867Z,45.75
2022-11-10T01:54:40.201Z,45.67
2022-11-10T01:57:28.816Z,45.52
2022-11-10T02:00:17.916Z,45.95
2022-11-10T02:03:12.152Z,45.92
2022-11-10T02:06:02.342Z,45.95
2022-11-10T02:08:51.696Z,45.90
2022-11-10T02:11:41.646Z,45.66
2022-11-10T02:14:30.357Z,45.94
2022-11-10T02:17:18.986Z,45.81
2022-11-10T02:20:10.736Z,45.56
2022-11-10T02:23:00.738Z,45.89
2022-11-10T02:25:49.342Z,45.92
2022-11-10T02:28:39.508Z,45.55
2022-11-10T02:31:28.099Z,45.73
2022-11-10T02:34:17.480Z,46.32
2022-11-10T02:37:06.050Z,45.90
2022-11-10T02:39:55.991Z,45.62
2022-11-10T02:42:44.548Z,45.83
2022-11-10T02:45:33.256Z,45.95
2022-11-10T02:48:22.185Z,45.80
2022-11-10T02:51:10.793Z,45.72
2022-11-10T02:53:59.470Z,46.03
2022-11-10T02:56:49.506Z,45.79
2022-11-10T02:59:38.129Z,45.85
2022-11-10T03:02:31.963Z,46.06
2022-11-10T03:05:20.942Z,45.79
2022-11-10T03:08:09.639Z,45.99
2022-11-10T03:10:58.535Z,45.53
2022-11-10T03:14:00.805Z,46.04
2022-11-10T03:16:50.396Z,45.71
2022-11-10T03:19:38.998Z,45.84
2022-11-10T03:22:27.603Z,46.08
2022-11-10T03:25:16.159Z,45.92
2022-11-10T03:28:04.816Z,46.02
2022-11-10T03:30:54.741Z,46.03
2022-11-10T03:33:43.397Z,45.59
2022-11-10T03:36:33.084Z,45.63
2022-11-10T03:39:21.673Z,46.04
2022-11-10T03:42:10.257Z,45.65
2022-11-10T03:44:58.877Z,46.10
2022-11-10T03:47:49.553Z,46.05
2022-11-10T03:50:38.275Z,46.03
2022-11-10T03:53:26.830Z,45.73
2022-11-10T03:56:15.530Z,45.97
2022-11-10T03:59:04.285Z,46.04
2022-11-10T04:01:52.889Z,45.75
2022-11-10T04:05:00.393Z,46.01
2022-11-10T04:08:06.465Z,45.58
2022-11-10T04:10:55.062Z,45.89
2022-11-10T04:14:01.435Z,45.83
2022-11-10T04:16:50.386Z,46.00
2022-11-10T04:19:38.958Z,46.10
2022-11-10T04:22:42.811Z,45.73
2022-11-10T04:25:51.438Z,45.68
2022-11-10T04:28:40.363Z,45.63
2022-11-10T04:31:30.583Z,45.98
2022-11-10T04:34:19.216Z,45.97
2022-11-10T04:37:07.829Z,45.82
2022-11-10T04:39:57.814Z,45.79
2022-11-10T04:42:46.401Z,46.01
2022-11-10T04:45:35.274Z,46.07
2022-11-10T04:48:24.181Z,46.00
2022-11-10T04:51:13.244Z,46.07
2022-11-10T04:54:02.127Z,45.86
2022-11-10T04:56:52.333Z,45.70
2022-11-10T04:59:40.860Z,46.05
2022-11-10T05:02:29.634Z,45.67
2022-11-10T05:05:18.400Z,45.99
2022-11-10T05:08:07.421Z,45.93
2022-11-10T05:10:55.983Z,45.96
2022-11-10T05:13:46.701Z,45.88
2022-11-10T05:16:35.367Z,45.65
2022-11-10T05:19:24.002Z,45.69
2022-11-10T05:22:12.571Z,45.75
2022-11-10T05:25:01.180Z,40.92
2022-11-10T05:27:49.758Z,40.13
2022-11-10T05:30:39.958Z,41.07
2022-11-10T05:33:28.530Z,42.48
2022-11-10T05:36:17.133Z,43.57
2022-11-10T05:39:05.955Z,43.86
2022-11-10T05:41:54.622Z,43.94
2022-11-10T05:44:43.268Z,43.88
2022-11-10T05:47:33.196Z,44.02
2022-11-10T05:50:22.808Z,43.73
2022-11-10T05:53:11.499Z,44.05
2022-11-10T05:56:00.188Z,44.30
2022-11-10T05:58:48.881Z,44.50
2022-11-10T06:01:37.485Z,44.63
2022-11-10T06:04:27.580Z,44.76
2022-11-10T06:07:16.143Z,44.52
2022-11-10T06:10:04.990Z,44.68
2022-11-10T06:12:53.723Z,44.76
2022-11-10T06:15:47.550Z,44.92
2022-11-10T06:18:38.717Z,45.00
2022-11-10T06:21:28.770Z,44.85
2022-11-10T06:24:17.405Z,44.83
2022-11-10T06:27:06.069Z,45.43
2022-11-10T06:29:54.687Z,45.10
2022-11-10T06:32:44.708Z,45.34
2022-11-10T06:35:33.393Z,45.50
2022-11-10T06:38:23.376Z,45.14
2022-11-10T06:41:12.102Z,45.47
2022-11-10T06:44:00.810Z,45.58
2022-11-10T06:46:49.480Z,45.36
2022-11-10T06:49:38.200Z,45.47
2022-11-10T06:52:26.745Z,45.57
2022-11-10T06:55:16.935Z,45.32
2022-11-10T06:58:05.472Z,45.28
2022-11-10T07:00:54.190Z,45.34
2022-11-10T07:04:05.105Z,45.39
2022-11-10T07:06:51.958Z,45.36
2022-11-10T07:09:40.599Z,45.37
2022-11-10T07:12:30.642Z,45.72
2022-11-10T07:15:19.344Z,45.51
2022-11-10T07:18:08.046Z,45.74
2022-11-10T07:20:56.636Z,45.64
2022-11-10T07:23:46.781Z,45.41
2022-11-10T07:26:35.593Z,45.55
2022-11-10T07:29:25.725Z,45.44
2022-11-10T07:32:14.882Z,45.49
2022-11-10T07:35:03.660Z,45.76
2022-11-10T07:37:52.312Z,45.63
2022-11-10T07:40:41.386Z,45.62
2022-11-10T07:43:30.085Z,45.56
2022-11-10T07:46:20.177Z,45.61
2022-11-10T07:49:08.863Z,45.59
2022-11-10T07:51:57.751Z,45.84
2022-11-10T07:54:46.440Z,45.93
2022-11-10T07:57:35.502Z,45.92
2022-11-10T08:00:24.482Z,45.74
2022-11-10T08:03:15.670Z,45.67
2022-11-10T08:06:04.452Z,45.71
2022-11-10T08:08:53.349Z,45.80
2022-11-10T08:11:42.050Z,45.90
2022-11-10T08:14:30.721Z,45.66
2022-11-10T08:17:19.624Z,45.42
2022-11-10T08:20:11.134Z,45.94
2022-11-10T08:23:00.701Z,45.76
2022-11-10T08:25:52.923Z,45.77
2022-11-10T08:28:41.585Z,45.53
2022-11-10T08:31:30.331Z,45.50
2022-11-10T08:34:18.990Z,45.72
2022-11-10T08:37:09.073Z,45.66
2022-11-10T08:39:57.742Z,45.73
2022-11-10T08:42:46.408Z,45.75
2022-11-10T08:45:35.715Z,45.65
2022-11-10T08:48:24.808Z,45.57
2022-11-10T08:51:13.525Z,45.67
2022-11-10T08:54:03.564Z,45.76
2022-11-10T08:56:52.186Z,45.60
2022-11-10T08:59:40.797Z,45.68
2022-11-10T09:02:30.444Z,45.27
2022-11-10T09:05:19.114Z,45.36
2022-11-10T09:08:08.512Z,45.33
2022-11-10T09:10:58.493Z,45.43
2022-11-10T09:13:47.167Z,45.48
2022-11-10T09:16:35.805Z,45.43
2022-11-10T09:19:24.558Z,45.07
2022-11-10T09:22:13.312Z,45.07
2022-11-10T09:25:02.051Z,45.21
2022-11-10T09:27:52.060Z,45.37
2022-11-10T09:30:40.868Z,45.32
2022-11-10T09:33:29.572Z,45.18
2022-11-10T09:36:18.263Z,45.48
2022-11-10T09:39:07.149Z,45.33
2022-11-10T09:41:56.182Z,45.31
2022-11-10T09:44:52.097Z,45.36
2022-11-10T09:47:57.350Z,45.19
2022-11-10T09:50:50.140Z,45.06
2022-11-10T09:53:40.800Z,45.04
2022-11-10T09:56:33.574Z,44.98
2022-11-10T09:59:27.421Z,44.81
2022-11-10T10:02:24.732Z,44.37
2022-11-10T10:05:35.950Z,44.48
2022-11-10T10:08:31.449Z,44.64
2022-11-10T10:11:28.911Z,44.61
2022-11-10T10:14:29.854Z,44.59
2022-11-10T10:17:27.057Z,44.43
2022-11-10T10:20:19.702Z,44.53
2022-11-10T10:23:15.838Z,44.59
2022-11-10T10:26:04.680Z,44.41
2022-11-10T10:28:55.348Z,44.58
2022-11-10T10:31:45.484Z,44.84
2022-11-10T10:34:35.730Z,44.97
2022-11-10T10:37:28.168Z,44.99
2022-11-10T10:40:18.276Z,45.13
2022-11-10T10:43:06.929Z,45.22
2022-11-10T10:46:06.740Z,45.02
2022-11-10T10:49:28.119Z,44.87
2022-11-10T10:52:24.976Z,44.77
2022-11-10T10:55:15.044Z,44.70
2022-11-10T10:58:05.470Z,44.48
2022-11-10T11:00:56.802Z,44.38
2022-11-10T11:03:46.966Z,44.35
2022-11-10T11:06:36.526Z,43.90
2022-11-10T11:09:28.350Z,44.14
2022-11-10T11:12:29.006Z,43.65
2022-11-10T11:15:25.723Z,43.65
2022-11-10T11:18:16.123Z,43.53
2022-11-10T11:21:10.921Z,43.42
2022-11-10T11:24:08.657Z,43.78
2022-11-10T11:27:02.862Z,42.99
2022-11-10T11:30:02.325Z,42.84
2022-11-10T11:33:12.233Z,42.37
2022-11-10T11:36:05.677Z,42.00
2022-11-10T11:38:57.991Z,42.41
2022-11-10T11:41:52.382Z,42.66
2022-11-10T11:44:53.321Z,42.77
2022-11-10T11:47:56.154Z,42.92
2022-11-10T11:50:51.963Z,43.35
2022-11-10T11:53:51.949Z,43.03
2022-11-10T11:56:43.188Z,43.49
2022-11-10T11:59:45.600Z,43.62
2022-11-10T12:02:56.001Z,43.71
2022-11-10T12:05:49.722Z,43.81
2022-11-10T12:08:44.833Z,44.11
2022-11-10T12:11:43.638Z,44.10
2022-11-10T12:14:38.972Z,44.43
2022-11-10T12:17:38.232Z,44.63
2022-11-10T12:20:40.626Z,44.52
2022-11-10T12:23:36.944Z,44.84
2022-11-10T12:26:35.277Z,44.71
2022-11-10T12:29:29.923Z,44.80
2022-11-10T12:32:22.360Z,40.80
2022-11-10T12:35:19.712Z,42.62
2022-11-10T12:38:12.265Z,42.75
2022-11-10T12:41:05.787Z,43.74
2022-11-10T12:44:04.346Z,43.92
2022-11-10T12:46:57.484Z,43.52
2022-11-10T12:49:53.436Z,43.88
2022-11-10T12:52:48.002Z,43.88
2022-11-10T12:55:40.421Z,43.85
2022-11-10T12:58:29.174Z,43.79
2022-11-10T13:01:21.239Z,43.53
2022-11-10T13:04:09.885Z,43.73
2022-11-10T13:07:00.913Z,44.44
2022-11-10T13:09:53.587Z,44.57
2022-11-10T13:13:00.186Z,44.47
2022-11-10T13:15:51.766Z,44.60
2022-11-10T13:19:01.812Z,44.77
2022-11-10T13:22:09.947Z,44.43
2022-11-10T13:25:35.986Z,44.70
2022-11-10T13:28:59.748Z,44.77
2022-11-10T13:31:53.672Z,44.93
2022-11-10T13:34:42.775Z,44.67
2022-11-10T13:37:50.673Z,44.83
2022-11-10T13:40:44.361Z,44.91
2022-11-10T13:43:33.380Z,44.76
2022-11-10T13:46:24.052Z,44.56
2022-11-10T13:49:39.446Z,44.90
2022-11-10T13:52:36.067Z,44.80
2022-11-10T13:55:36.297Z,45.12
2022-11-10T13:58:27.617Z,44.97
2022-11-10T14:01:30.430Z,44.97
2022-11-10T14:04:39.112Z,44.90
2022-11-10T14:07:29.802Z,44.83
2022-11-10T14:10:20.665Z,45.09
2022-11-10T14:13:15.291Z,45.06
2022-11-10T14:16:04.224Z,44.90
2022-11-10T14:18:58.628Z,44.71
2022-11-10T14:21:55.405Z,44.83
2022-11-10T14:24:55.701Z,44.68
2022-11-10T14:27:46.172Z,44.84
2022-11-10T14:30:34.985Z,44.71
2022-11-10T14:33:24.102Z,44.81
2022-11-10T14:36:14.729Z,44.87
2022-11-10T14:39:03.888Z,44.66
2022-11-10T14:41:52.600Z,44.88
2022-11-10T14:44:41.909Z,44.77
2022-11-10T14:47:31.886Z,44.88
2022-11-10T14:50:23.705Z,44.97
2022-11-10T14:53:23.206Z,45.16
2022-11-10T14:56:17.824Z,45.05
2022-11-10T14:59:08.053Z,45.37
2022-11-10T15:01:57.975Z,45.28
2022-11-10T15:04:47.570Z,45.35
2022-11-10T15:07:36.491Z,45.23
2022-11-10T15:10:28.219Z,45.28
2022-11-10T15:13:21.288Z,45.23
2022-11-10T15:16:23.044Z,45.34
2022-11-10T15:19:26.021Z,45.43
2022-11-10T15:22:18.783Z,45.33
2022-11-10T15:25:14.777Z,45.47
2022-11-10T15:28:07.679Z,45.51
2022-11-10T15:30:58.078Z,45.56
2022-11-10T15:33:49.573Z,45.67
2022-11-10T15:36:39.645Z,45.92
2022-11-10T15:39:30.123Z,45.61
2022-11-10T15:42:21.279Z,45.64
2022-11-10T15:45:11.559Z,45.90
2022-11-10T15:48:00.234Z,45.87
2022-11-10T15:50:51.102Z,45.99
2022-11-10T15:53:43.526Z,46.07
2022-11-10T15:56:32.214Z,45.79
2022-11-10T15:59:20.817Z,45.63
2022-11-10T16:02:20.598Z,46.02
2022-11-10T16:05:12.052Z,46.06
2022-11-10T16:08:00.695Z,46.02
2022-11-10T16:10:50.768Z,46.05
2022-11-10T16:13:39.838Z,46.00
2022-11-10T16:16:28.533Z,45.95
2022-11-10T16:19:18.630Z,45.80
2022-11-10T16:22:07.252Z,46.34
2022-11-10T16:24:55.839Z,45.95
2022-11-10T16:27:44.531Z,45.75
2022-11-10T16:30:33.326Z,45.84
2022-11-10T16:33:24.580Z,45.89
2022-11-10T16:36:21.919Z,45.90
2022-11-10T16:39:13.952Z,46.08
2022-11-10T16:42:02.585Z,46.12
2022-11-10T16:44:51.201Z,45.91
2022-11-10T16:47:39.884Z,45.95
2022-11-10T16:50:32.568Z,46.27
2022-11-10T16:53:25.164Z,46.38
2022-11-10T16:56:15.967Z,46.15
2022-11-10T16:59:05.004Z,46.33
2022-11-10T17:01:54.595Z,46.23
2022-11-10T17:04:43.451Z,46.15
2022-11-10T17:07:32.101Z,46.11
2022-11-10T17:10:22.799Z,46.41
2022-11-10T17:13:11.686Z,46.45
2022-11-10T17:16:04.967Z,46.20
2022-11-10T17:18:53.692Z,46.16
2022-11-10T17:21:42.437Z,46.26
2022-11-10T17:24:31.152Z,46.31
2022-11-10T17:27:21.234Z,45.94
2022-11-10T17:30:13.014Z,46.02
2022-11-10T17:33:05.603Z,46.13
2022-11-10T17:35:54.934Z,45.93
2022-11-10T17:38:44.267Z,46.12
2022-11-10T17:41:32.887Z,45.90
2022-11-10T17:44:22.862Z,46.19
2022-11-10T17:47:11.512Z,46.33
2022-11-10T17:50:00.143Z,46.35
2022-11-10T17:52:49.451Z,46.13
2022-11-10T17:55:38.101Z,46.35
2022-11-10T17:58:26.791Z,46.43
2022-11-10T18:01:22.572Z,46.18
2022-11-10T18:04:16.732Z,46.18
2022-11-10T18:07:05.415Z,46.38
2022-11-10T18:09:54.007Z,46.19
2022-11-10T18:12:42.851Z,46.26
2022-11-10T18:15:32.061Z,46.04
2022-11-10T18:18:22.060Z,45.96
2022-11-10T18:21:11.571Z,46.37
2022-11-10T18:24:00.190Z,46.44
2022-11-10T18:26:48.852Z,45.94
2022-11-10T18:29:37.499Z,45.89
2022-11-10T18:32:26.184Z,45.69
2022-11-10T18:35:17.730Z,45.81
2022-11-10T18:38:06.617Z,46.05
2022-11-10T18:40:55.359Z,45.65
2022-11-10T18:43:43.969Z,45.50
2022-11-10T18:46:32.554Z,45.46
2022-11-10T18:49:21.419Z,44.98
2022-11-10T18:52:11.799Z,44.42
2022-11-10T18:55:01.046Z,44.26
2022-11-10T18:57:49.868Z,44.19
2022-11-10T19:00:38.451Z,44.75
2022-11-10T19:03:27.039Z,45.33
2022-11-10T19:06:15.908Z,45.94
2022-11-10T19:09:06.160Z,46.37
2022-11-10T19:11:54.786Z,46.54
2022-11-10T19:14:43.469Z,46.45
2022-11-10T19:17:32.088Z,46.81
2022-11-10T19:20:20.700Z,46.95
2022-11-10T19:23:17.868Z,46.60
2022-11-10T19:26:21.908Z,46.84
2022-11-10T19:29:11.290Z,47.15
2022-11-10T19:32:18.612Z,46.62
2022-11-10T19:35:15.053Z,46.68
2022-11-10T19:38:03.680Z,46.51
2022-11-10T19:40:52.432Z,46.71
2022-11-10T19:43:47.139Z,46.62
2022-11-10T19:46:37.024Z,46.84
2022-11-10T19:49:25.675Z,46.95
2022-11-10T19:52:14.322Z,46.64
2022-11-10T19:55:03.171Z,47.02
2022-11-10T19:57:52.147Z,46.72
2022-11-10T20:00:43.449Z,46.94
2022-11-10T20:03:32.024Z,46.67
2022-11-10T20:06:22.525Z,47.20
2022-11-10T20:09:11.194Z,46.89
2022-11-10T20:11:59.883Z,46.82
2022-11-10T20:14:48.653Z,46.71
2022-11-10T20:17:38.678Z,46.91
2022-11-10T20:20:27.329Z,46.89
2022-11-10T20:23:16.875Z,47.11
2022-11-10T20:26:07.574Z,46.80
2022-11-10T20:28:56.237Z,46.71
2022-11-10T20:31:51.457Z,46.69
2022-11-10T20:34:41.516Z,46.59
2022-11-10T20:37:33.877Z,46.68
2022-11-10T20:40:43.304Z,46.73
2022-11-10T20:43:31.764Z,46.84
2022-11-10T20:46:48.287Z,46.84
2022-11-10T20:49:31.422Z,47.15
2022-11-10T20:52:21.519Z,46.68
2022-11-10T20:55:18.063Z,46.69
2022-11-10T20:58:07.214Z,46.82
2022-11-10T21:00:56.024Z,46.87
2022-11-10T21:03:44.595Z,46.83
2022-11-10T21:06:33.216Z,46.74
2022-11-10T21:09:23.657Z,46.62
2022-11-10T21:12:32.198Z,46.77
2022-11-10T21:15:21.565Z,46.55
2022-11-10T21:18:10.224Z,46.61
2022-11-10T21:20:59.065Z,46.53
2022-11-10T21:23:47.718Z,46.91
2022-11-10T21:26:37.972Z,46.96
2022-11-10T21:29:26.820Z,46.62
2022-11-10T21:32:15.416Z,46.53
2022-11-10T21:35:04.077Z,46.57
2022-11-10T21:37:52.761Z,46.51
2022-11-10T21:40:41.599Z,46.58
2022-11-10T21:43:31.815Z,46.88
2022-11-10T21:46:20.932Z,47.09
2022-11-10T21:49:09.617Z,46.96
2022-11-10T21:51:58.458Z,46.99
2022-11-10T21:54:47.062Z,47.02
2022-11-10T21:57:35.685Z,46.93
2022-11-10T22:00:26.801Z,46.79
2022-11-10T22:03:15.525Z,46.98
2022-11-10T22:06:05.462Z,46.72
2022-11-10T22:08:54.328Z,47.25
2022-11-10T22:12:00.479Z,46.51
2022-11-10T22:15:06.821Z,46.98
2022-11-10T22:18:14.677Z,46.79
2022-11-10T22:21:03.799Z,46.85
2022-11-10T22:24:10.239Z,46.85
2022-11-10T22:27:00.253Z,47.03
2022-11-10T22:29:49.818Z,47.02
2022-11-10T22:32:38.723Z,47.03
2022-11-10T22:35:47.242Z,47.11
2022-11-10T22:38:37.468Z,47.09
2022-11-10T22:41:43.955Z,47.01
2022-11-10T22:44:32.702Z,46.33
2022-11-10T22:47:21.409Z,46.21
2022-11-10T22:50:10.218Z,45.98
2022-11-10T22:53:00.336Z,45.99
2022-11-10T22:55:49.122Z,46.07
2022-11-10T22:58:37.847Z,45.69
2022-11-10T23:01:26.828Z,45.92
2022-11-10T23:04:16.192Z,45.95
2022-11-10T23:07:05.145Z,46.34
2022-11-10T23:09:55.308Z,46.42
2022-11-10T23:12:44.062Z,46.57
2022-11-10T23:15:34.622Z,46.30
2022-11-10T23:18:23.809Z,46.54
2022-11-10T23:21:14.283Z,46.50
2022-11-10T23:24:03.135Z,46.67
2022-11-10T23:26:53.328Z,46.88
2022-11-10T23:29:42.060Z,46.66
2022-11-10T23:32:30.838Z,46.82
2022-11-10T23:35:19.652Z,46.89
2022-11-10T23:38:08.611Z,46.83
2022-11-10T23:40:57.682Z,46.78
2022-11-10T23:43:48.640Z,46.98
2022-11-10T23:46:37.667Z,46.69
2022-11-10T23:49:26.421Z,46.84
2022-11-10T23:52:15.158Z,46.79
2022-11-10T23:55:04.020Z,46.88
2022-11-10T23:57:52.771Z,46.52
